Flight Track Log - Related Links

Times and Time Zones

All times are in EDT time to prevent confusion due to time zone crossing. See the N813JE flight status page for this flight to view local times or setup timezone preferences in your user account.


Time Position Orientation Groundspeed Altitude Reporting Facility
EDT Latitude Longitude Course Direction KTS MPH feet Rate Location/Type
Sat 03:20:13 PM 44.5069 -73.1219 148° Southeast 130 150 3,000  Level Boston Center
Sat 03:21:14 PM 44.4753 -73.0906 145° Southeast 135 155 3,700 683 Climbing Boston Center
Sat 03:22:16 PM 44.4406 -73.0583 146° Southeast 146 168 4,400 683 Climbing Boston Center
Sat 03:23:17 PM 44.4019 -73.0219 146° Southeast 151 174 5,100 689 Climbing Boston Center
Sat 03:24:00 PM 44.2919 -72.9834 148° Southeast  Level FlightAware Approximate
Sat 03:24:18 PM 44.3661 -72.9886 146° Southeast 153 176 5,800  Level Boston Center
Sat 03:25:00 PM 44.2618 -72.9577 148° Southeast  Level FlightAware Approximate
Sat 03:25:19 PM 44.3286 -72.9531 146° Southeast 153 176 6,500  Level Boston Center
Sat 03:26:21 PM 44.2958 -72.9228 147° Southeast 145 167 7,000 488 Climbing Boston Center
Sat 03:27:22 PM 44.2614 -72.8911 147° Southeast 146 168 7,500 197 Climbing Boston Center
Sat 03:28:23 PM 44.2214 -72.8542 146° Southeast 159 183 7,400 -49 Descending Boston Center
Sat 03:29:25 PM 44.1803 -72.8158 146° Southeast 176 203 7,400  Level Boston Center
Sat 03:30:26 PM 44.1397 -72.7781 146° Southeast 176 203 7,400  Level Boston Center
Sat 03:31:27 PM 44.0942 -72.7364 147° Southeast 179 206 7,400  Level Boston Center
Sat 03:32:28 PM 44.0519 -72.6981 147° Southeast 179 206 7,400  Level Boston Center
Sat 03:33:30 PM 44.0072 -72.6564 146° Southeast 180 207 7,400 49 Level Boston Center
Sat 03:34:31 PM 43.9672 -72.6192 146° Southeast 176 203 7,500  Climbing Boston Center
Sat 03:35:32 PM 43.9331 -72.5856 145° Southeast 177 204 7,400  Descending Boston Center
Sat 03:36:34 PM 43.8903 -72.5292 136° Southeast 177 204 7,500 49 Climbing Boston Center
Sat 03:37:35 PM 43.8478 -72.4939 149° Southeast 178 205 7,500  Level Boston Center
Sat 03:38:36 PM 43.8042 -72.4603 151° Southeast 178 205 7,500  Level Boston Center
Sat 03:39:38 PM 43.7597 -72.4253 150° Southeast 179 206 7,500 -49 Level Boston Center
Sat 03:40:39 PM 43.7139 -72.3956 155° Southeast 179 206 7,400  Descending Boston Center
Sat 03:41:41 PM 43.6744 -72.3578 145° Southeast 178 205 7,500 49 Climbing Boston Center
Sat 03:42:42 PM 43.6283 -72.3278 155° Southeast 178 205 7,500  Level Boston Center
Sat 03:43:43 PM 43.5836 -72.2958 153° Southeast 178 205 7,500  Level Boston Center
Sat 03:44:45 PM 43.5394 -72.2633 152° Southeast 179 206 7,500 -49 Level Boston Center
Sat 03:45:46 PM 43.4858 -72.2233 152° Southeast 180 207 7,400  Descending Boston Center
Sat 03:46:48 PM 43.4372 -72.1983 160° South 182 209 7,500 49 Climbing Boston Center
Sat 03:47:49 PM 43.3917 -72.1678 154° Southeast 181 208 7,500  Level Boston Center
Sat 03:48:50 PM 43.3508 -72.1275 144° Southeast 180 207 7,500 -195 Level Boston Center
Sat 03:49:52 PM 43.3061 -72.0825 144° Southeast 184 212 7,100 -341 Descending Boston Center
Sat 03:50:53 PM 43.2622 -72.0400 145° Southeast 191 220 6,800 -293 Descending Boston Center
Sat 03:51:55 PM 43.2186 -71.9986 145° Southeast 191 220 6,500 -439 Descending Boston Center
Sat 03:52:56 PM 43.1703 -71.9508 144° Southeast 196 226 5,900 -590 Descending Boston Center
Sat 03:53:57 PM 43.1253 -71.9083 145° Southeast 198 228 5,300 -537 Descending Boston Center
Sat 03:54:59 PM 43.0806 -71.8658 145° Southeast 198 228 4,800 -537 Descending Boston Center
Sat 03:56:00 PM 43.0319 -71.8197 145° Southeast 198 228 4,200 -541 Descending Boston Center
Sat 03:57:01 PM 42.9875 -71.7769 145° Southeast 198 228 3,700 -341 Descending Boston Center
Sat 03:58:03 PM 42.9436 -71.7339 144° Southeast 197 227 3,500 -98 Descending Boston Center
Sat 03:59:04 PM 42.9019 -71.6950 146° Southeast 185 213 3,500  Level Boston Center
Sat 04:00:05 PM 42.8586 -71.6536 145° Southeast 180 207 3,500  Level Boston Center
Sat 04:01:07 PM 42.8183 -71.6153 145° Southeast 179 206 3,500  Level Boston Center
Sat 04:02:08 PM 42.7775 -71.5769 145° Southeast 179 206 3,500  Level Boston Center
Sat 04:03:09 PM 42.7344 -71.5358 145° Southeast 179 206 3,500  Level Boston Center
Sat 04:04:11 PM 42.6950 -71.4986 145° Southeast 176 203 3,500  Level Boston Center
Sat 04:05:12 PM 42.6539 -71.4608 146° Southeast 177 204 3,500  Level Boston Center
Sat 04:06:13 PM 42.6150 -71.4250 146° Southeast 177 204 3,500  Level Boston Center

Login

Don't have an account? Register now (free) for customized features, flight alerts, and more!